Time;durP1;ratioP1;P1;durP2;ratioP2;P2;SDS_P1;SDS_P2;PMS_P1;PMS_P2;Temp;Humidity;BMP_temperature;BMP_pressure;BME280_temperature;BME280_humidity;BME280_pressure;Samples;Min_cycle;Max_cycle;Signal;HPM_P1;HPM_P2
2022/10/17 00:00:17;;;;;;;4.70;2.93;;;14.40;99.90;;;;;;5018819;28;20580;-79
2022/10/17 00:02:43;;;;;;;4.20;3.67;;;14.40;99.90;;;;;;5018306;28;20547;-79
2022/10/17 00:05:10;;;;;;;8.53;3.80;;;14.40;99.90;;;;;;5017001;28;20181;-79
2022/10/17 00:07:36;;;;;;;8.10;3.90;;;14.40;99.90;;;;;;5017981;28;20642;-79
2022/10/17 00:10:02;;;;;;;8.17;4.17;;;14.40;99.90;;;;;;5018758;28;20292;-79
2022/10/17 00:12:28;;;;;;;6.33;4.07;;;14.50;99.90;;;;;;5018414;28;20689;-79
2022/10/17 00:14:53;;;;;;;6.43;4.43;;;14.50;99.90;;;;;;5001580;28;20178;-79
2022/10/17 00:17:19;;;;;;;7.83;4.27;;;14.60;99.90;;;;;;5011411;28;20208;-79
2022/10/17 00:19:44;;;;;;;6.73;5.20;;;14.60;99.90;;;;;;5018059;28;20220;-79
2022/10/17 00:22:10;;;;;;;6.07;4.40;;;14.60;99.90;;;;;;5021066;28;20184;-79
2022/10/17 00:24:35;;;;;;;5.83;4.90;;;14.70;99.90;;;;;;5022798;28;20256;-79
2022/10/17 00:27:01;;;;;;;5.70;4.63;;;14.80;99.90;;;;;;5026162;28;20240;-79
2022/10/17 00:29:26;;;;;;;6.70;4.93;;;14.80;99.90;;;;;;5028381;28;20200;-79
2022/10/17 00:31:56;;;;;;;5.43;4.80;;;14.90;99.90;;;;;;5018118;28;20204;-79
2022/10/17 00:34:22;;;;;;;9.20;5.47;;;14.90;99.90;;;;;;5016762;28;20181;-79
2022/10/17 00:36:47;;;;;;;9.40;5.63;;;15.00;99.90;;;;;;5015599;28;20613;-79
2022/10/17 00:39:13;;;;;;;5.77;5.07;;;15.00;99.90;;;;;;5016908;28;20225;-79
2022/10/17 00:41:38;;;;;;;7.93;5.57;;;15.00;99.90;;;;;;5017270;28;20237;-79
2022/10/17 00:44:26;;;;;;;6.60;5.53;;;15.10;99.90;;;;;;5007939;28;20201;-79
2022/10/17 00:46:51;;;;;;;5.70;5.17;;;15.00;99.90;;;;;;4995663;28;20186;-79
2022/10/17 00:49:17;;;;;;;7.77;5.83;;;15.10;99.90;;;;;;4996986;28;20198;-79
2022/10/17 00:51:51;;;;;;;8.07;5.63;;;15.10;99.90;;;;;;4995713;28;20721;-79
2022/10/17 00:54:20;;;;;;;12.60;5.47;;;15.10;99.90;;;;;;5004973;28;20528;-79
2022/10/17 00:56:46;;;;;;;6.07;5.17;;;15.20;99.90;;;;;;5016961;28;20183;-79
2022/10/17 00:59:14;;;;;;;10.47;5.57;;;15.20;99.90;;;;;;5014940;28;20249;-79
2022/10/17 01:01:44;;;;;;;5.93;4.80;;;15.10;99.90;;;;;;5015312;28;20177;-79
2022/10/17 01:04:10;;;;;;;8.53;5.90;;;15.20;99.90;;;;;;5016418;28;20551;-79
2022/10/17 01:06:36;;;;;;;7.23;5.17;;;15.20;99.90;;;;;;5017232;28;20232;-79
2022/10/17 01:09:01;;;;;;;9.00;5.03;;;15.20;99.90;;;;;;5015058;28;20199;-79
2022/10/17 01:12:12;;;;;;;10.13;5.93;;;15.20;99.90;;;;;;5016506;28;20192;-79
2022/10/17 01:15:00;;;;;;;11.97;5.23;;;15.30;99.90;;;;;;4994688;28;20193;-79
2022/10/17 01:17:38;;;;;;;8.57;5.57;;;15.30;99.90;;;;;;5006161;28;20196;-79
2022/10/17 01:20:32;;;;;;;11.93;5.40;;;15.30;99.90;;;;;;5016926;28;20189;-79
2022/10/17 01:23:29;;;;;;;6.33;5.03;;;15.20;99.90;;;;;;5015700;28;20177;-79
2022/10/17 01:26:26;;;;;;;8.40;5.80;;;15.20;99.90;;;;;;4996186;28;20549;-79
2022/10/17 01:29:09;;;;;;;9.53;5.43;;;15.20;99.90;;;;;;4995813;28;20292;-79
2022/10/17 01:31:45;;;;;;;9.83;5.50;;;15.30;99.90;;;;;;4997911;28;20304;-79
2022/10/17 01:34:26;;;;;;;6.27;4.37;;;15.30;99.90;;;;;;5009295;28;20172;-78
2022/10/17 01:37:29;;;;;;;9.17;5.23;;;15.30;99.90;;;;;;5021463;28;20165;-79
2022/10/17 01:40:27;;;;;;;8.80;5.13;;;15.30;99.90;;;;;;5019646;28;20271;-79
2022/10/17 01:43:31;;;;;;;6.17;5.37;;;15.30;99.90;;;;;;5005911;28;20678;-79
2022/10/17 01:46:18;;;;;;;6.33;5.03;;;15.30;99.90;;;;;;4941654;29;20267;-79
2022/10/17 01:48:45;;;;;;;7.27;5.30;;;15.30;99.90;;;;;;4941375;29;20199;-79
2022/10/17 01:51:28;;;;;;;13.10;5.27;;;15.30;99.90;;;;;;4990219;28;20750;-79
2022/10/17 01:54:01;;;;;;;9.33;5.63;;;15.30;99.90;;;;;;5020481;28;20239;-79
2022/10/17 01:56:29;;;;;;;12.00;5.43;;;15.40;99.90;;;;;;5021243;28;20157;-79
2022/10/17 01:59:09;;;;;;;8.57;5.43;;;15.30;99.90;;;;;;5068771;23;20236;-80
2022/10/17 02:01:36;;;;;;;6.33;5.30;;;15.30;99.90;;;;;;5018061;28;20184;-81
2022/10/17 02:04:04;;;;;;;6.70;4.87;;;15.30;99.90;;;;;;5034199;28;20180;-81
2022/10/17 02:06:34;;;;;;;6.77;5.27;;;15.30;99.90;;;;;;5010377;28;20204;-81
2022/10/17 02:08:59;;;;;;;7.37;6.23;;;15.40;99.90;;;;;;5021637;28;20220;-80
2022/10/17 02:11:26;;;;;;;8.47;5.80;;;15.40;99.90;;;;;;5003940;28;20197;-81
2022/10/17 02:14:03;;;;;;;6.70;5.40;;;15.40;99.90;;;;;;5002844;28;20173;-80
2022/10/17 02:16:59;;;;;;;6.27;4.83;;;15.40;99.90;;;;;;5020959;28;20164;-80
2022/10/17 02:19:36;;;;;;;6.00;4.80;;;15.40;99.90;;;;;;5020845;28;20195;-81
2022/10/17 02:22:15;;;;;;;7.30;4.93;;;15.40;99.90;;;;;;5021828;28;20161;-80
2022/10/17 02:25:04;;;;;;;8.47;5.40;;;15.40;99.90;;;;;;5021118;28;20177;-81
2022/10/17 02:27:55;;;;;;;6.23;4.80;;;15.40;99.90;;;;;;5003450;28;20706;-81
2022/10/17 02:30:45;;;;;;;8.03;5.00;;;15.40;99.90;;;;;;5020867;28;20197;-81
2022/10/17 02:33:14;;;;;;;11.80;6.00;;;15.40;99.90;;;;;;5021402;28;20174;-81
2022/10/17 02:35:45;;;;;;;7.03;5.60;;;15.40;99.90;;;;;;5000414;28;20174;-80
2022/10/17 02:38:12;;;;;;;9.10;5.53;;;15.40;99.90;;;;;;5000659;28;20177;-80
2022/10/17 02:40:39;;;;;;;6.83;4.97;;;15.40;99.90;;;;;;5004045;28;20188;-81
2022/10/17 02:43:05;;;;;;;4.63;4.23;;;15.40;99.90;;;;;;5003330;28;20273;-81
2022/10/17 02:45:34;;;;;;;6.77;5.13;;;15.50;99.90;;;;;;5024225;28;20180;-80
2022/10/17 02:48:48;;;;;;;5.20;4.53;;;15.50;99.90;;;;;;5010337;28;20596;-81
2022/10/17 02:51:40;;;;;;;9.57;4.50;;;15.40;99.90;;;;;;4982251;28;20216;-81
2022/10/17 02:54:14;;;;;;;8.00;5.30;;;15.50;99.90;;;;;;5000724;28;20173;-80
2022/10/17 02:56:52;;;;;;;9.27;5.43;;;15.50;99.90;;;;;;5001554;28;20206;-81
2022/10/17 02:59:21;;;;;;;7.23;5.00;;;15.50;99.90;;;;;;5001267;28;20208;-81
2022/10/17 03:01:48;;;;;;;7.27;5.00;;;15.50;99.90;;;;;;5018722;28;20169;-80
2022/10/17 03:04:13;;;;;;;8.50;5.30;;;15.50;99.90;;;;;;5018279;28;20717;-80
2022/10/17 03:06:40;;;;;;;8.57;4.57;;;15.50;99.90;;;;;;5000769;28;20181;-81
2022/10/17 03:09:06;;;;;;;10.50;4.60;;;15.50;99.90;;;;;;5000969;28;20255;-81
2022/10/17 03:11:32;;;;;;;6.10;4.80;;;15.50;99.90;;;;;;5018710;28;20667;-81
2022/10/17 03:13:58;;;;;;;5.53;4.90;;;15.50;99.90;;;;;;5013417;28;20177;-81
2022/10/17 03:16:24;;;;;;;6.27;4.80;;;15.50;99.90;;;;;;4998652;28;20208;-81
2022/10/17 03:18:49;;;;;;;7.00;4.73;;;15.40;99.90;;;;;;4998713;28;20232;-81
2022/10/17 03:21:15;;;;;;;7.63;4.87;;;15.50;99.90;;;;;;4999160;28;20177;-81
2022/10/17 03:23:40;;;;;;;6.27;4.40;;;15.50;99.90;;;;;;4999571;28;20181;-80
2022/10/17 03:26:07;;;;;;;5.50;4.70;;;15.50;99.90;;;;;;5018970;28;20548;-81
2022/10/17 03:28:32;;;;;;;5.30;4.80;;;15.60;99.90;;;;;;5018568;28;20196;-81
2022/10/17 03:30:58;;;;;;;7.27;4.33;;;15.60;99.90;;;;;;5018867;28;20766;-81
2022/10/17 03:33:24;;;;;;;5.10;4.60;;;15.50;99.90;;;;;;5018413;28;20237;-80
2022/10/17 03:35:49;;;;;;;15.50;4.80;;;15.60;99.90;;;;;;4997409;28;20177;-81
2022/10/17 03:38:15;;;;;;;9.50;4.70;;;15.60;99.90;;;;;;4997747;28;20250;-81
2022/10/17 03:40:41;;;;;;;4.53;4.13;;;15.60;99.90;;;;;;4998949;28;20185;-81
2022/10/17 03:43:06;;;;;;;6.20;4.43;;;15.60;99.90;;;;;;4997164;28;20169;-81
2022/10/17 03:45:32;;;;;;;5.60;4.50;;;15.60;99.90;;;;;;5017473;28;20165;-81
2022/10/17 03:47:58;;;;;;;6.30;4.43;;;15.60;99.90;;;;;;4999774;28;20192;-80
2022/10/17 03:50:24;;;;;;;6.17;4.30;;;15.60;99.90;;;;;;5017588;28;20205;-81
2022/10/17 03:52:49;;;;;;;11.60;4.43;;;15.60;99.90;;;;;;5018112;28;20222;-81
2022/10/17 03:55:16;;;;;;;7.20;4.70;;;15.60;99.90;;;;;;4999660;28;20180;-81
2022/10/17 03:57:41;;;;;;;6.20;5.10;;;15.60;99.90;;;;;;5018203;28;20196;-81
2022/10/17 04:00:08;;;;;;;4.83;4.30;;;15.60;99.90;;;;;;5018260;28;20215;-81
2022/10/17 04:02:34;;;;;;;6.90;3.73;;;15.60;99.90;;;;;;5000235;28;20181;-81
2022/10/17 04:05:00;;;;;;;7.80;4.33;;;15.60;99.90;;;;;;5000385;28;20177;-81
2022/10/17 04:07:26;;;;;;;5.70;4.10;;;15.60;99.90;;;;;;5018304;28;20184;-81
2022/10/17 04:09:51;;;;;;;6.23;4.20;;;15.70;99.90;;;;;;5000814;28;20832;-80
2022/10/17 04:12:17;;;;;;;10.23;6.30;;;15.60;99.90;;;;;;5000075;28;20219;-81
2022/10/17 04:14:42;;;;;;;5.97;4.17;;;15.60;99.90;;;;;;5005502;28;20185;-81
2022/10/17 04:17:08;;;;;;;7.97;4.83;;;15.70;99.90;;;;;;4996782;28;20174;-81
2022/10/17 04:19:34;;;;;;;7.83;4.20;;;15.70;99.90;;;;;;4998177;28;20197;-81
2022/10/17 04:21:59;;;;;;;4.63;3.83;;;15.70;99.90;;;;;;4997777;28;20178;-81
2022/10/17 04:24:25;;;;;;;6.57;4.70;;;15.70;99.90;;;;;;5005570;28;20557;-81
2022/10/17 04:26:51;;;;;;;6.23;4.03;;;15.70;99.90;;;;;;5017432;28;20705;-81
2022/10/17 04:29:17;;;;;;;6.30;4.20;;;15.70;99.90;;;;;;5017359;28;20739;-81
2022/10/17 04:31:42;;;;;;;4.53;4.13;;;15.70;99.90;;;;;;4999414;28;20200;-81
2022/10/17 04:34:08;;;;;;;5.63;3.87;;;15.70;99.90;;;;;;4991891;28;20198;-81
2022/10/17 04:36:34;;;;;;;4.97;4.10;;;15.70;99.90;;;;;;4979789;28;20528;-81
2022/10/17 04:39:02;;;;;;;5.90;4.00;;;15.70;99.90;;;;;;4997354;28;20204;-81
2022/10/17 04:41:27;;;;;;;7.73;3.87;;;15.80;99.90;;;;;;4996796;28;20527;-81
2022/10/17 04:43:53;;;;;;;8.73;4.20;;;15.80;99.90;;;;;;4985022;28;20287;-80
2022/10/17 04:46:18;;;;;;;7.30;3.73;;;15.70;99.90;;;;;;5016798;28;20177;-81
2022/10/17 04:48:44;;;;;;;6.13;3.63;;;15.80;99.90;;;;;;4998894;28;20205;-82
2022/10/17 04:51:13;;;;;;;6.03;4.40;;;15.80;99.90;;;;;;4999193;28;20240;-82
2022/10/17 04:53:39;;;;;;;6.03;3.80;;;15.80;99.90;;;;;;4999881;28;20180;-80
2022/10/17 04:56:23;;;;;;;6.37;3.90;;;15.80;99.90;;;;;;5001082;28;20188;-79
2022/10/17 04:58:50;;;;;;;7.20;4.13;;;15.80;99.90;;;;;;4998610;28;20243;-80
2022/10/17 05:01:18;;;;;;;5.07;4.13;;;15.90;99.90;;;;;;5019739;28;20272;-79
2022/10/17 05:03:44;;;;;;;8.83;4.10;;;15.80;99.90;;;;;;5018605;28;20291;-79
2022/10/17 05:06:17;;;;;;;5.83;3.97;;;15.80;99.90;;;;;;4999113;28;20709;-79
2022/10/17 05:08:43;;;;;;;5.10;3.63;;;15.80;99.90;;;;;;5019005;28;20196;-79
2022/10/17 05:11:25;;;;;;;5.97;4.33;;;15.80;99.90;;;;;;5019296;28;20201;-80
2022/10/17 05:13:54;;;;;;;9.53;4.17;;;15.80;99.90;;;;;;5001003;28;20203;-79
2022/10/17 05:16:20;;;;;;;5.73;4.03;;;15.70;99.90;;;;;;5000489;28;20185;-79
2022/10/17 05:18:50;;;;;;;7.73;4.10;;;15.80;99.90;;;;;;5018904;28;20617;-79
2022/10/17 05:21:16;;;;;;;5.37;3.60;;;15.90;99.90;;;;;;5018436;28;20231;-79
2022/10/17 05:23:41;;;;;;;4.57;4.00;;;15.90;99.90;;;;;;4999610;28;20177;-79
2022/10/17 05:26:07;;;;;;;7.00;3.53;;;15.90;99.90;;;;;;5017198;28;20185;-79
2022/10/17 05:28:33;;;;;;;4.87;4.00;;;15.80;99.90;;;;;;5017129;28;20212;-80
2022/10/17 05:31:07;;;;;;;6.70;3.73;;;15.90;99.90;;;;;;5017225;28;20177;-80
2022/10/17 05:33:33;;;;;;;4.83;4.00;;;15.90;99.90;;;;;;5000305;28;20546;-81
2022/10/17 05:35:59;;;;;;;4.97;3.77;;;15.90;99.90;;;;;;5025379;28;20173;-81
2022/10/17 05:38:25;;;;;;;5.20;3.83;;;16.00;99.90;;;;;;5027071;28;20200;-81
2022/10/17 05:40:51;;;;;;;6.47;3.53;;;16.00;99.90;;;;;;5026192;28;20200;-81
2022/10/17 05:43:16;;;;;;;4.30;3.40;;;16.00;99.90;;;;;;5025857;28;20169;-81
2022/10/17 05:45:42;;;;;;;4.13;3.40;;;16.00;99.90;;;;;;5026441;28;20169;-81
2022/10/17 05:48:08;;;;;;;7.03;3.70;;;16.00;99.90;;;;;;5030537;28;20233;-81
2022/10/17 05:50:34;;;;;;;4.73;3.50;;;16.00;99.90;;;;;;5034831;28;20208;-81
2022/10/17 05:53:00;;;;;;;8.13;3.70;;;16.00;99.90;;;;;;5017674;28;20209;-81
2022/10/17 05:55:25;;;;;;;5.93;3.40;;;16.00;99.90;;;;;;5007361;28;20193;-80
2022/10/17 05:57:52;;;;;;;7.63;3.80;;;15.90;99.90;;;;;;5020262;28;20651;-80
2022/10/17 06:00:19;;;;;;;7.87;3.93;;;15.90;99.90;;;;;;5001861;28;20239;-81
2022/10/17 06:02:45;;;;;;;6.93;3.70;;;16.00;99.90;;;;;;5019299;28;20185;-80
2022/10/17 06:05:11;;;;;;;7.03;3.80;;;16.00;99.90;;;;;;5002066;28;20183;-80
2022/10/17 06:07:37;;;;;;;6.63;3.33;;;15.90;99.90;;;;;;5019396;28;20185;-81
2022/10/17 06:10:02;;;;;;;6.40;4.00;;;16.00;99.90;;;;;;5019752;28;20336;-80
2022/10/17 06:12:28;;;;;;;5.53;3.57;;;15.90;99.90;;;;;;5001786;28;20232;-80
2022/10/17 06:14:54;;;;;;;8.97;3.40;;;15.90;99.90;;;;;;5018590;28;20181;-80
2022/10/17 06:17:19;;;;;;;4.17;3.67;;;15.90;99.90;;;;;;5019755;28;20173;-80
2022/10/17 06:19:45;;;;;;;4.23;3.43;;;15.90;99.90;;;;;;5004952;28;20209;-80
2022/10/17 06:22:11;;;;;;;7.43;3.70;;;16.00;99.90;;;;;;5004975;28;20203;-80
2022/10/17 06:24:36;;;;;;;5.47;3.50;;;15.90;99.90;;;;;;5023200;28;20602;-80
2022/10/17 06:27:02;;;;;;;4.97;3.63;;;15.90;99.90;;;;;;5022445;28;20180;-80
2022/10/17 06:29:29;;;;;;;5.80;3.70;;;15.90;99.90;;;;;;5022251;28;20208;-80
2022/10/17 06:31:54;;;;;;;3.67;3.30;;;15.90;99.90;;;;;;5022616;28;20220;-80
2022/10/17 06:34:20;;;;;;;7.60;3.70;;;15.90;99.90;;;;;;5023174;28;20604;-80
2022/10/17 06:36:45;;;;;;;5.70;3.50;;;15.90;99.90;;;;;;5022411;28;20177;-81
2022/10/17 06:39:11;;;;;;;10.03;3.50;;;15.90;99.90;;;;;;5022653;28;20197;-80
2022/10/17 06:41:38;;;;;;;5.90;3.73;;;15.90;99.90;;;;;;5022671;28;20181;-80
2022/10/17 06:44:09;;;;;;;6.67;3.60;;;15.90;99.90;;;;;;5004243;28;20183;-80
2022/10/17 06:46:35;;;;;;;7.07;4.07;;;15.90;99.90;;;;;;5022529;28;20153;-80
2022/10/17 06:49:01;;;;;;;4.53;3.93;;;16.00;99.90;;;;;;5022072;28;20205;-80
2022/10/17 06:51:27;;;;;;;7.03;4.30;;;16.00;99.90;;;;;;5004622;28;20211;-80
2022/10/17 06:53:52;;;;;;;4.03;3.67;;;16.00;99.90;;;;;;5022115;28;20178;-80
2022/10/17 06:56:18;;;;;;;4.83;3.87;;;16.00;99.90;;;;;;5022232;28;20237;-80
2022/10/17 06:58:45;;;;;;;7.73;3.47;;;16.10;99.90;;;;;;5003291;28;20217;-80
2022/10/17 07:01:12;;;;;;;7.33;3.80;;;16.10;99.90;;;;;;5004404;28;20192;-80
2022/10/17 07:03:39;;;;;;;8.60;3.57;;;16.10;99.90;;;;;;5021938;28;20213;-80
2022/10/17 07:06:04;;;;;;;9.13;3.33;;;16.10;99.90;;;;;;5003668;28;20185;-80
2022/10/17 07:08:30;;;;;;;6.00;3.37;;;16.10;99.90;;;;;;5022484;28;21858;-80
2022/10/17 07:10:56;;;;;;;6.10;3.80;;;16.20;99.90;;;;;;5022101;28;20188;-80
2022/10/17 07:13:22;;;;;;;6.80;3.60;;;16.20;99.90;;;;;;5021511;28;20173;-80
2022/10/17 07:15:48;;;;;;;7.03;3.57;;;16.20;99.90;;;;;;5003112;28;20177;-80
2022/10/17 07:18:14;;;;;;;6.73;3.53;;;16.20;99.90;;;;;;5021419;28;20204;-80
2022/10/17 07:20:40;;;;;;;4.47;3.30;;;16.20;99.90;;;;;;5003917;28;20177;-80
2022/10/17 07:23:06;;;;;;;4.13;3.60;;;16.20;99.90;;;;;;5021126;28;20177;-80
2022/10/17 07:25:32;;;;;;;7.03;3.50;;;16.20;99.90;;;;;;5021776;28;20219;-80
2022/10/17 07:27:57;;;;;;;5.63;3.33;;;16.30;99.90;;;;;;5002656;28;20177;-80
2022/10/17 07:30:23;;;;;;;8.53;3.77;;;16.40;99.90;;;;;;5002030;28;20291;-80
2022/10/17 07:32:52;;;;;;;3.73;3.23;;;16.40;99.90;;;;;;5021268;28;20205;-80
2022/10/17 07:35:18;;;;;;;5.57;3.77;;;16.40;99.90;;;;;;5021477;28;20192;-80
2022/10/17 07:37:43;;;;;;;5.90;3.17;;;16.40;99.90;;;;;;5021477;28;20639;-80
2022/10/17 07:40:10;;;;;;;6.77;3.87;;;16.50;99.90;;;;;;5002911;28;20570;-80
2022/10/17 07:42:36;;;;;;;5.83;3.70;;;16.50;99.90;;;;;;5020786;28;20169;-80
2022/10/17 07:45:02;;;;;;;7.17;3.50;;;16.60;99.90;;;;;;5021804;28;20243;-80
2022/10/17 07:47:29;;;;;;;5.03;3.27;;;16.70;99.90;;;;;;5022687;28;20181;-80
2022/10/17 07:49:55;;;;;;;5.93;3.47;;;16.70;99.90;;;;;;5022705;28;20196;-80
2022/10/17 07:52:21;;;;;;;5.43;3.10;;;16.70;99.90;;;;;;5021361;28;20193;-80
2022/10/17 07:54:46;;;;;;;4.07;3.30;;;16.70;99.90;;;;;;5002954;28;20180;-79
2022/10/17 07:57:12;;;;;;;3.80;2.87;;;16.70;99.90;;;;;;5021568;28;20222;-80
2022/10/17 07:59:37;;;;;;;6.30;3.30;;;16.80;99.90;;;;;;5030541;23;20221;-78
2022/10/17 08:02:03;;;;;;;3.87;3.10;;;16.80;99.90;;;;;;5016145;28;20189;-78
2022/10/17 08:04:29;;;;;;;7.63;3.50;;;16.90;99.90;;;;;;5017650;28;20177;-78
2022/10/17 08:06:54;;;;;;;4.53;3.23;;;16.90;99.90;;;;;;5016757;28;20181;-78
2022/10/17 08:09:20;;;;;;;6.97;3.17;;;16.90;99.90;;;;;;5017851;28;20196;-77
2022/10/17 08:11:46;;;;;;;5.17;3.33;;;17.00;99.90;;;;;;5017536;28;20201;-77
2022/10/17 08:14:12;;;;;;;7.30;3.50;;;17.00;99.90;;;;;;5017448;28;20682;-78
2022/10/17 08:16:38;;;;;;;3.80;3.27;;;17.10;99.90;;;;;;5015761;28;20177;-78
2022/10/17 08:19:04;;;;;;;4.23;2.97;;;17.10;99.90;;;;;;5016977;28;20188;-78
2022/10/17 08:21:30;;;;;;;3.30;2.73;;;17.10;99.90;;;;;;5015545;28;20714;-77
2022/10/17 08:23:55;;;;;;;5.03;3.27;;;17.20;99.90;;;;;;5015451;28;20172;-78
2022/10/17 08:26:22;;;;;;;3.90;2.97;;;17.20;99.90;;;;;;5017175;28;20639;-77
2022/10/17 08:28:47;;;;;;;3.40;2.93;;;17.20;99.90;;;;;;5016702;28;20224;-78
2022/10/17 08:31:17;;;;;;;6.40;3.30;;;17.20;99.90;;;;;;5015187;28;20292;-77
2022/10/17 08:33:43;;;;;;;3.57;2.70;;;17.30;99.90;;;;;;5016391;28;20176;-78
2022/10/17 08:36:12;;;;;;;5.23;2.93;;;17.30;99.90;;;;;;5016647;28;20539;-77
2022/10/17 08:38:38;;;;;;;5.93;2.97;;;17.40;99.90;;;;;;5017052;28;20196;-77
2022/10/17 08:41:12;;;;;;;7.50;2.80;;;17.40;99.90;;;;;;5017448;28;20189;-78
2022/10/17 08:43:47;;;;;;;10.57;3.47;;;17.50;99.90;;;;;;5017165;28;20149;-78
2022/10/17 08:46:12;;;;;;;3.40;2.77;;;17.50;99.90;;;;;;5016833;28;20540;-78
2022/10/17 08:48:46;;;;;;;6.17;2.63;;;17.60;99.90;;;;;;5014689;28;20173;-77
2022/10/17 08:51:26;;;;;;;4.63;2.80;;;17.60;99.90;;;;;;5015711;28;20158;-77
2022/10/17 08:54:31;;;;;;;5.23;2.77;;;17.70;99.90;;;;;;5016885;28;20576;-77
2022/10/17 08:56:57;;;;;;;5.23;2.80;;;17.70;99.90;;;;;;4985986;28;20235;-77
2022/10/17 08:59:26;;;;;;;6.47;2.83;;;17.90;99.90;;;;;;5016323;28;20609;-77
2022/10/17 09:02:20;;;;;;;4.17;2.70;;;17.90;99.90;;;;;;5016818;28;20197;-78
2022/10/17 09:04:57;;;;;;;7.07;3.07;;;17.90;99.90;;;;;;5016553;28;20162;-78
2022/10/17 09:07:31;;;;;;;4.33;3.10;;;18.00;99.90;;;;;;5015617;28;20184;-77
2022/10/17 09:10:08;;;;;;;5.77;2.77;;;18.00;99.90;;;;;;5016897;28;20659;-77
2022/10/17 09:12:44;;;;;;;3.13;2.50;;;18.10;99.90;;;;;;5015252;28;20666;-77
2022/10/17 09:15:15;;;;;;;4.20;2.50;;;18.10;99.90;;;;;;5014444;28;20172;-78
2022/10/17 09:17:55;;;;;;;6.83;2.73;;;18.20;99.90;;;;;;5015602;28;20161;-77
2022/10/17 09:20:35;;;;;;;6.30;2.63;;;18.30;99.90;;;;;;5016208;28;20215;-77
2022/10/17 09:23:05;;;;;;;5.77;2.53;;;18.40;99.90;;;;;;5013882;28;20184;-77
2022/10/17 09:25:43;;;;;;;4.60;2.87;;;18.50;99.90;;;;;;5015732;28;20157;-77
2022/10/17 09:28:09;;;;;;;7.97;2.67;;;18.50;99.90;;;;;;5015419;28;20167;-77
2022/10/17 09:31:01;;;;;;;4.63;2.80;;;18.50;99.90;;;;;;5015382;28;20279;-77
2022/10/17 09:33:32;;;;;;;4.57;3.20;;;18.60;99.90;;;;;;5014215;28;20260;-77
2022/10/17 09:35:59;;;;;;;4.20;2.70;;;18.60;99.90;;;;;;5016508;28;20158;-78
2022/10/17 09:38:35;;;;;;;5.80;2.60;;;18.60;99.90;;;;;;5015925;28;20177;-78
2022/10/17 09:41:01;;;;;;;6.37;2.87;;;18.70;99.90;;;;;;5015726;28;20205;-77
2022/10/17 09:43:27;;;;;;;5.60;2.90;;;18.60;99.90;;;;;;5012982;28;20562;-78
2022/10/17 09:46:07;;;;;;;3.10;2.60;;;18.60;99.90;;;;;;5013575;28;20272;-77
2022/10/17 09:49:00;;;;;;;5.37;2.30;;;18.60;99.90;;;;;;5015175;28;20153;-78
2022/10/17 09:51:26;;;;;;;5.20;3.40;;;18.60;99.90;;;;;;5015396;28;20189;-77
2022/10/17 09:54:03;;;;;;;3.93;2.70;;;18.60;99.90;;;;;;5017381;28;20319;-78
2022/10/17 09:56:29;;;;;;;5.77;2.90;;;18.60;99.90;;;;;;5019740;28;20184;-77
2022/10/17 09:58:56;;;;;;;7.40;2.90;;;18.60;99.90;;;;;;5019066;28;20647;-77
2022/10/17 10:01:27;;;;;;;4.80;2.40;;;18.60;99.90;;;;;;5018770;28;20177;-77
2022/10/17 10:04:09;;;;;;;9.77;2.90;;;18.60;99.90;;;;;;5018083;28;20178;-78
2022/10/17 10:06:35;;;;;;;3.97;2.60;;;18.60;99.90;;;;;;5017227;28;20549;-77
2022/10/17 10:09:04;;;;;;;3.07;2.60;;;18.60;99.90;;;;;;5018325;28;20193;-77
2022/10/17 10:11:50;;;;;;;5.80;2.97;;;18.60;99.90;;;;;;5016593;28;20240;-77
2022/10/17 10:14:21;;;;;;;7.60;2.83;;;18.60;99.90;;;;;;5017001;28;20204;-77
2022/10/17 10:16:48;;;;;;;3.10;2.33;;;18.60;99.90;;;;;;5017885;28;20176;-77
2022/10/17 10:19:34;;;;;;;4.10;2.90;;;18.60;99.90;;;;;;5017738;28;20189;-77
2022/10/17 10:22:12;;;;;;;5.60;2.73;;;18.60;99.90;;;;;;5018107;28;20717;-77
2022/10/17 10:24:38;;;;;;;6.60;2.60;;;18.60;99.90;;;;;;5017158;28;20217;-77
2022/10/17 10:27:04;;;;;;;3.97;2.80;;;18.60;99.90;;;;;;5017081;28;20205;-77
2022/10/17 10:29:34;;;;;;;4.43;2.67;;;18.60;99.90;;;;;;5016888;28;20196;-77
2022/10/17 10:32:33;;;;;;;9.37;2.60;;;18.70;99.90;;;;;;5015442;28;20263;-77
2022/10/17 10:35:06;;;;;;;4.77;2.60;;;18.80;99.90;;;;;;5017227;28;20730;-77
2022/10/17 10:37:35;;;;;;;3.43;2.63;;;18.80;99.90;;;;;;5016226;28;20180;-77
2022/10/17 10:40:04;;;;;;;4.77;3.10;;;18.90;99.90;;;;;;5015465;28;20284;-77
2022/10/17 10:42:34;;;;;;;4.07;2.60;;;19.00;99.90;;;;;;5015514;28;20267;-77
2022/10/17 10:45:12;;;;;;;4.23;2.70;;;19.00;99.90;;;;;;5017217;28;20585;-77
2022/10/17 10:47:37;;;;;;;3.93;2.50;;;19.00;99.90;;;;;;5015749;28;20204;-77
2022/10/17 10:50:24;;;;;;;7.10;2.77;;;19.00;99.90;;;;;;5017171;28;20197;-77
2022/10/17 10:53:37;;;;;;;5.57;2.70;;;19.00;99.90;;;;;;5013884;28;20713;-78
2022/10/17 10:56:36;;;;;;;6.13;2.83;;;19.00;99.90;;;;;;5008508;28;20279;-77
2022/10/17 10:59:07;;;;;;;5.63;3.03;;;19.00;99.90;;;;;;5016168;28;20241;-77
2022/10/17 11:01:36;;;;;;;6.23;2.80;;;19.00;99.90;;;;;;5015217;28;20533;-77
2022/10/17 11:04:20;;;;;;;4.00;2.80;;;18.80;99.90;;;;;;5014332;28;20713;-77
2022/10/17 11:06:47;;;;;;;7.00;2.83;;;19.00;99.90;;;;;;5015630;28;20560;-77
2022/10/17 11:09:27;;;;;;;4.87;2.63;;;18.90;99.90;;;;;;5016209;28;20607;-78
2022/10/17 11:12:29;;;;;;;4.77;2.77;;;18.90;99.90;;;;;;5016702;28;20288;-78
2022/10/17 11:15:15;;;;;;;4.63;2.73;;;18.90;99.90;;;;;;5016636;28;20176;-77
2022/10/17 11:18:02;;;;;;;9.37;2.87;;;18.90;99.90;;;;;;5015791;28;20671;-77
2022/10/17 11:20:31;;;;;;;6.13;3.27;;;18.90;99.90;;;;;;5017526;28;20193;-78
2022/10/17 11:23:27;;;;;;;6.20;3.17;;;18.80;99.90;;;;;;5016602;28;20627;-78
2022/10/17 11:25:55;;;;;;;8.80;2.90;;;18.80;99.90;;;;;;5014382;28;20181;-78
2022/10/17 11:28:23;;;;;;;8.07;3.30;;;18.80;99.90;;;;;;5017359;28;20181;-77
2022/10/17 11:31:02;;;;;;;6.40;2.87;;;18.80;99.90;;;;;;5015459;28;20197;-77
2022/10/17 11:33:36;;;;;;;14.20;3.67;;;18.80;99.90;;;;;;5016143;28;20177;-78
2022/10/17 11:36:05;;;;;;;4.60;2.80;;;18.80;99.90;;;;;;5016848;28;20172;-77
2022/10/17 11:39:03;;;;;;;9.07;2.97;;;18.80;99.90;;;;;;5016566;28;20169;-77
2022/10/17 11:41:43;;;;;;;4.97;2.67;;;18.80;99.90;;;;;;5014824;28;20172;-77
2022/10/17 11:44:34;;;;;;;2.73;2.47;;;18.80;99.90;;;;;;5010557;28;20227;-77
2022/10/17 11:47:31;;;;;;;7.30;3.40;;;18.90;99.90;;;;;;5016530;28;20192;-77
2022/10/17 11:50:10;;;;;;;5.83;2.97;;;19.00;99.90;;;;;;5016196;28;20602;-77
2022/10/17 11:52:51;;;;;;;4.60;3.10;;;19.00;99.90;;;;;;5014223;28;20192;-77
2022/10/17 11:55:23;;;;;;;3.20;2.70;;;19.10;99.90;;;;;;4996438;28;20184;-77
2022/10/17 11:58:19;;;;;;;5.93;3.07;;;19.10;99.90;;;;;;4995802;28;20260;-77
2022/10/17 12:01:03;;;;;;;8.13;3.30;;;19.10;99.90;;;;;;4995843;28;20205;-77
2022/10/17 12:03:33;;;;;;;5.03;3.43;;;19.10;99.90;;;;;;4997657;28;20220;-77
2022/10/17 12:06:09;;;;;;;5.73;3.13;;;19.10;99.90;;;;;;5015218;28;20161;-76
2022/10/17 12:08:48;;;;;;;5.70;3.13;;;19.10;99.90;;;;;;5015474;28;20300;-77
2022/10/17 12:11:38;;;;;;;10.10;3.30;;;19.10;99.90;;;;;;5014067;28;20158;-76
2022/10/17 12:14:36;;;;;;;5.77;3.00;;;19.00;99.90;;;;;;5012320;28;20597;-77
2022/10/17 12:17:03;;;;;;;7.17;3.60;;;19.10;99.90;;;;;;5013956;28;20208;-77
2022/10/17 12:19:36;;;;;;;5.87;3.07;;;19.00;99.90;;;;;;5014859;28;20212;-77
2022/10/17 12:22:18;;;;;;;5.23;3.23;;;19.10;99.90;;;;;;5015845;28;20256;-77
2022/10/17 12:24:51;;;;;;;5.10;3.33;;;19.00;99.90;;;;;;5001572;28;20186;-77
2022/10/17 12:27:44;;;;;;;9.57;3.33;;;19.00;99.90;;;;;;4995763;28;20165;-77
2022/10/17 12:30:18;;;;;;;14.33;3.43;;;19.10;99.90;;;;;;4993834;28;20578;-77
2022/10/17 12:33:02;;;;;;;3.97;3.10;;;19.00;99.90;;;;;;4995056;28;20284;-77
2022/10/17 12:35:30;;;;;;;8.03;3.83;;;19.00;99.90;;;;;;5013074;28;20177;-77
2022/10/17 12:38:14;;;;;;;8.37;3.00;;;19.00;99.90;;;;;;5015480;28;20173;-77
2022/10/17 12:40:42;;;;;;;7.30;2.97;;;18.90;99.90;;;;;;5014414;28;20622;-77
2022/10/17 12:43:14;;;;;;;7.43;3.70;;;18.90;99.90;;;;;;5013783;28;20184;-77
2022/10/17 12:45:56;;;;;;;6.30;3.67;;;18.80;99.90;;;;;;5011662;28;20227;-77
2022/10/17 12:48:37;;;;;;;6.67;3.80;;;18.80;99.90;;;;;;4993962;28;20656;-77
2022/10/17 12:51:10;;;;;;;11.13;3.90;;;18.80;99.90;;;;;;4995210;28;20173;-77
2022/10/17 12:53:59;;;;;;;7.97;3.50;;;18.70;99.90;;;;;;4995039;28;20162;-77
2022/10/17 12:56:42;;;;;;;8.40;3.50;;;18.70;99.90;;;;;;4999331;28;20177;-77
2022/10/17 12:59:23;;;;;;;7.13;3.63;;;18.70;99.90;;;;;;5014389;28;20659;-77
2022/10/17 13:01:52;;;;;;;11.00;4.87;;;18.60;99.90;;;;;;5012854;28;20181;-77
2022/10/17 13:04:18;;;;;;;6.10;4.30;;;18.60;99.90;;;;;;5013027;28;20181;-77
2022/10/17 13:06:47;;;;;;;7.13;4.70;;;18.60;99.90;;;;;;5014421;28;20172;-77
2022/10/17 13:09:24;;;;;;;6.47;4.10;;;18.60;99.90;;;;;;5014523;28;20196;-77